createdAt,value
2023-03-26T00:00:35.187Z,7.70
2023-03-26T00:03:12.507Z,6.70
2023-03-26T00:05:50.298Z,6.30
2023-03-26T00:08:26.846Z,5.80
2023-03-26T00:11:05.012Z,5.60
2023-03-26T00:13:41.794Z,6.70
2023-03-26T00:16:19.998Z,5.30
2023-03-26T00:18:56.473Z,7.10
2023-03-26T00:21:35.373Z,6.80
2023-03-26T00:24:16.439Z,6.10
2023-03-26T00:26:53.691Z,5.60
2023-03-26T00:29:33.492Z,5.30
2023-03-26T00:32:10.737Z,6.70
2023-03-26T00:34:47.978Z,6.60
2023-03-26T00:37:26.503Z,6.70
2023-03-26T00:40:05.322Z,5.70
2023-03-26T00:42:43.395Z,5.90
2023-03-26T00:45:21.500Z,5.40
2023-03-26T00:48:02.686Z,5.60
2023-03-26T00:50:38.652Z,5.70
2023-03-26T00:53:14.772Z,6.30
2023-03-26T00:55:52.961Z,5.90
2023-03-26T00:58:30.354Z,6.10
2023-03-26T01:01:13.965Z,5.60
2023-03-26T01:04:06.914Z,5.80
2023-03-26T01:06:45.663Z,5.90
2023-03-26T01:09:24.516Z,6.00
2023-03-26T01:12:02.212Z,6.10
2023-03-26T01:14:38.450Z,5.50
2023-03-26T01:17:15.167Z,5.70
2023-03-26T01:20:01.584Z,6.20
2023-03-26T01:22:39.541Z,5.40
2023-03-26T01:25:16.977Z,5.80
2023-03-26T22:34:28.494Z,5.80
2023-03-26T22:37:05.729Z,5.20
2023-03-26T22:39:44.842Z,4.50
2023-03-26T22:42:21.429Z,4.20
2023-03-26T22:44:58.356Z,4.40
2023-03-26T22:47:35.793Z,5.00
2023-03-26T22:50:15.287Z,4.20
2023-03-26T22:52:54.471Z,3.60
2023-03-26T22:55:30.976Z,4.30
2023-03-26T22:58:07.553Z,3.50
2023-03-26T23:00:43.651Z,3.10
2023-03-26T23:03:20.026Z,2.40
2023-03-26T23:06:14.583Z,2.90
2023-03-26T23:08:50.984Z,2.90
2023-03-26T23:11:29.998Z,2.90
2023-03-26T23:14:06.406Z,3.20
2023-03-26T23:16:43.134Z,2.60
2023-03-26T23:19:19.551Z,3.10
2023-03-26T23:21:55.962Z,2.40
2023-03-26T23:24:33.071Z,2.00
2023-03-26T23:27:09.742Z,1.90
2023-03-26T23:29:48.112Z,2.00
2023-03-26T23:32:25.752Z,2.10
2023-03-26T23:35:02.190Z,1.90
2023-03-26T23:37:38.448Z,2.10
2023-03-26T23:40:20.635Z,1.90
2023-03-26T23:42:57.690Z,1.60
2023-03-26T23:45:34.976Z,2.00
2023-03-26T23:48:14.220Z,1.70
2023-03-26T23:50:53.067Z,1.80
2023-03-26T23:53:41.058Z,1.50
2023-03-26T23:56:20.406Z,1.70
2023-03-26T23:58:59.768Z,1.70
